createdAt,value
2018-05-17T00:01:02.112Z,455
2018-05-17T00:02:09.317Z,454
2018-05-17T00:03:16.523Z,454
2018-05-17T00:04:23.729Z,453
2018-05-17T00:05:30.664Z,453
2018-05-17T00:06:37.869Z,454
2018-05-17T00:07:45.078Z,453
2018-05-17T00:08:52.286Z,452
2018-05-17T00:09:59.494Z,452
2018-05-17T00:11:06.703Z,453
2018-05-17T00:12:13.630Z,454
2018-05-17T00:13:20.841Z,454
2018-05-17T00:14:28.049Z,454
2018-05-17T00:15:34.978Z,454
2018-05-17T00:16:42.191Z,453
2018-05-17T00:17:49.138Z,454
2018-05-17T00:18:56.339Z,453
2018-05-17T00:20:03.544Z,453
2018-05-17T00:21:10.758Z,453
2018-05-17T00:22:17.960Z,453
2018-05-17T00:23:25.167Z,453
2018-05-17T00:24:32.376Z,453
2018-05-17T00:25:39.582Z,453
2018-05-17T00:26:46.784Z,455
2018-05-17T00:27:53.984Z,454
2018-05-17T00:29:01.285Z,453
2018-05-17T00:30:08.482Z,452
2018-05-17T00:31:15.698Z,451
2018-05-17T00:32:22.903Z,451
2018-05-17T00:33:30.101Z,451
2018-05-17T00:34:37.305Z,451
2018-05-17T00:35:44.609Z,451
2018-05-17T00:36:51.851Z,451
2018-05-17T00:37:59.057Z,451
2018-05-17T00:39:06.272Z,451
2018-05-17T00:40:13.469Z,452
2018-05-17T00:41:20.669Z,451
2018-05-17T00:42:27.876Z,451
2018-05-17T00:43:35.086Z,451
2018-05-17T00:44:42.291Z,451
2018-05-17T00:45:49.498Z,450
2018-05-17T00:46:56.429Z,450
2018-05-17T00:48:03.637Z,450
2018-05-17T00:49:10.840Z,450
2018-05-17T00:50:18.046Z,450
2018-05-17T00:51:25.247Z,450
2018-05-17T00:52:32.452Z,450
2018-05-17T00:53:39.620Z,450
2018-05-17T00:54:46.832Z,450
2018-05-17T00:55:53.762Z,450
2018-05-17T00:57:00.963Z,451
2018-05-17T00:58:08.164Z,451
2018-05-17T00:59:15.368Z,452
2018-05-17T01:00:22.574Z,452
2018-05-17T01:01:29.791Z,451
2018-05-17T01:02:36.991Z,451
2018-05-17T01:03:44.216Z,450
2018-05-17T01:04:51.434Z,451
2018-05-17T01:05:58.634Z,452
2018-05-17T01:07:05.870Z,452
2018-05-17T01:08:13.071Z,453
2018-05-17T01:09:20.003Z,453
2018-05-17T01:10:27.208Z,454
2018-05-17T01:11:34.148Z,455
2018-05-17T01:12:41.354Z,457
2018-05-17T01:13:48.557Z,455
2018-05-17T01:14:55.758Z,457
2018-05-17T01:16:02.965Z,458
2018-05-17T01:17:10.167Z,459
2018-05-17T01:18:17.371Z,459
2018-05-17T01:19:24.579Z,460
2018-05-17T01:20:31.782Z,460
2018-05-17T01:21:38.986Z,463
2018-05-17T01:22:46.197Z,463
2018-05-17T01:23:53.397Z,463
2018-05-17T01:25:00.321Z,463
2018-05-17T01:26:07.599Z,464
2018-05-17T01:27:14.808Z,465
2018-05-17T01:28:22.019Z,464
2018-05-17T01:29:29.217Z,464
2018-05-17T01:30:36.418Z,462
2018-05-17T01:31:43.622Z,458
2018-05-17T01:32:50.831Z,450
2018-05-17T01:33:58.033Z,448
2018-05-17T01:35:05.464Z,444
2018-05-17T01:36:12.747Z,440
2018-05-17T01:37:19.681Z,438
2018-05-17T01:38:26.883Z,431
2018-05-17T01:39:34.093Z,424
2018-05-17T01:40:41.022Z,421
2018-05-17T01:41:48.309Z,419
2018-05-17T01:42:55.514Z,416
2018-05-17T01:44:02.717Z,413
2018-05-17T01:45:09.929Z,411
2018-05-17T01:46:17.133Z,409
2018-05-17T01:47:24.070Z,407
2018-05-17T01:48:31.268Z,407
2018-05-17T01:49:38.472Z,408
2018-05-17T01:50:45.679Z,408
2018-05-17T01:51:52.879Z,408
2018-05-17T01:52:59.810Z,409
2018-05-17T01:54:07.015Z,409
2018-05-17T01:55:14.214Z,410
2018-05-17T01:56:21.159Z,411
2018-05-17T01:57:28.094Z,411
2018-05-17T01:58:35.293Z,412
2018-05-17T01:59:42.500Z,412
2018-05-17T02:00:49.698Z,412
2018-05-17T02:01:56.900Z,413
2018-05-17T02:03:04.105Z,413
2018-05-17T02:04:11.305Z,414
2018-05-17T02:05:18.509Z,415
2018-05-17T02:06:25.709Z,414
2018-05-17T02:07:32.639Z,415
2018-05-17T02:08:39.914Z,415
2018-05-17T02:09:47.112Z,415
2018-05-17T02:10:54.316Z,416
2018-05-17T02:12:01.521Z,416
2018-05-17T02:13:08.728Z,416
2018-05-17T02:14:15.933Z,416
2018-05-17T02:15:23.134Z,416
2018-05-17T02:16:30.067Z,417
2018-05-17T02:17:37.270Z,416
2018-05-17T02:18:44.474Z,416
2018-05-17T02:19:51.682Z,417
2018-05-17T02:20:58.894Z,417
2018-05-17T02:22:06.089Z,417
2018-05-17T02:23:13.319Z,418
2018-05-17T02:24:20.526Z,417
2018-05-17T02:25:27.740Z,418
2018-05-17T02:26:34.944Z,419
2018-05-17T02:27:42.150Z,419
2018-05-17T02:28:49.364Z,419
2018-05-17T02:29:56.293Z,419
2018-05-17T02:31:03.518Z,419
2018-05-17T02:32:10.722Z,420
2018-05-17T02:33:17.928Z,420
2018-05-17T02:34:25.155Z,419
2018-05-17T02:35:32.360Z,420
2018-05-17T02:36:39.558Z,420
2018-05-17T02:37:46.761Z,420
2018-05-17T02:38:53.971Z,422
2018-05-17T02:40:01.176Z,422
2018-05-17T02:41:08.100Z,421
2018-05-17T02:42:15.301Z,422
2018-05-17T02:43:22.506Z,422
2018-05-17T02:44:29.707Z,421
2018-05-17T02:45:36.913Z,421
2018-05-17T02:46:44.118Z,421
2018-05-17T02:47:51.336Z,422
2018-05-17T02:48:58.537Z,422
2018-05-17T02:50:05.748Z,422
2018-05-17T02:51:12.947Z,422
2018-05-17T02:52:20.148Z,422
2018-05-17T02:53:27.356Z,422
2018-05-17T02:54:34.564Z,422
2018-05-17T02:55:41.776Z,422
2018-05-17T02:56:48.989Z,422
2018-05-17T02:57:56.189Z,423
2018-05-17T02:59:03.391Z,423
2018-05-17T03:00:10.594Z,422
2018-05-17T03:01:17.799Z,423
2018-05-17T03:02:25.002Z,423
2018-05-17T03:03:32.211Z,423
2018-05-17T03:04:39.442Z,424
2018-05-17T03:05:46.381Z,424
2018-05-17T03:06:53.588Z,424
2018-05-17T03:08:00.793Z,424
2018-05-17T03:09:07.997Z,425
2018-05-17T03:10:14.924Z,424
2018-05-17T03:11:22.129Z,425
2018-05-17T03:12:29.345Z,425
2018-05-17T03:13:36.545Z,425
2018-05-17T03:14:43.749Z,424
2018-05-17T03:15:50.953Z,425
2018-05-17T03:16:58.157Z,425
2018-05-17T03:18:05.370Z,425
2018-05-17T03:19:12.577Z,425
2018-05-17T03:20:19.506Z,425
2018-05-17T03:21:26.716Z,426
2018-05-17T03:22:33.649Z,426
2018-05-17T03:23:40.850Z,426
2018-05-17T03:24:48.050Z,427
2018-05-17T03:25:55.258Z,427
2018-05-17T03:27:02.192Z,427
2018-05-17T03:28:09.397Z,426
2018-05-17T03:29:16.604Z,426
2018-05-17T03:30:23.807Z,427
2018-05-17T03:31:31.008Z,427
2018-05-17T03:32:38.213Z,427
2018-05-17T03:33:45.417Z,427
2018-05-17T03:34:52.615Z,427
2018-05-17T03:35:59.818Z,428
2018-05-17T03:37:07.089Z,427
2018-05-17T03:38:14.290Z,427
2018-05-17T03:39:21.493Z,428
2018-05-17T03:40:28.701Z,428
2018-05-17T03:41:35.914Z,428
2018-05-17T03:42:43.122Z,428
2018-05-17T03:43:50.322Z,428
2018-05-17T03:44:57.527Z,428
2018-05-17T03:46:04.727Z,428
2018-05-17T03:47:11.932Z,428
2018-05-17T03:48:19.135Z,428
2018-05-17T03:49:26.434Z,428
2018-05-17T03:50:33.642Z,429
2018-05-17T03:51:40.839Z,428
2018-05-17T03:52:48.046Z,429
2018-05-17T03:53:55.252Z,428
2018-05-17T03:55:02.455Z,429
2018-05-17T03:56:09.660Z,429
2018-05-17T03:57:16.857Z,429
2018-05-17T03:58:24.064Z,429
2018-05-17T03:59:31.266Z,429
2018-05-17T04:00:38.192Z,429
2018-05-17T04:01:45.407Z,429
2018-05-17T04:02:52.607Z,429
2018-05-17T04:03:59.810Z,429
2018-05-17T04:05:07.184Z,429
2018-05-17T04:06:14.121Z,429
2018-05-17T04:07:21.327Z,429
2018-05-17T04:08:28.628Z,429
2018-05-17T04:09:35.860Z,430
2018-05-17T04:10:42.792Z,430
2018-05-17T04:11:49.718Z,430
2018-05-17T04:12:56.929Z,430
2018-05-17T04:14:03.866Z,430
2018-05-17T04:15:11.069Z,429
2018-05-17T04:16:18.005Z,429
2018-05-17T04:17:25.200Z,429
2018-05-17T04:18:32.402Z,429
2018-05-17T04:19:39.613Z,430
2018-05-17T04:20:46.814Z,430
2018-05-17T04:21:54.024Z,430
2018-05-17T04:23:01.239Z,430
2018-05-17T04:24:08.442Z,430
2018-05-17T04:25:15.650Z,429
2018-05-17T04:26:22.858Z,430
2018-05-17T04:27:29.785Z,430
2018-05-17T04:28:36.990Z,430
2018-05-17T04:29:44.201Z,430
2018-05-17T04:30:51.402Z,430
2018-05-17T04:31:58.335Z,430
2018-05-17T04:33:05.540Z,430
2018-05-17T04:34:12.744Z,430
2018-05-17T04:35:19.972Z,430
2018-05-17T04:36:27.175Z,430
2018-05-17T04:37:34.374Z,430
2018-05-17T04:38:41.642Z,430
2018-05-17T04:39:48.848Z,430
2018-05-17T04:40:56.050Z,430
2018-05-17T04:42:03.255Z,430
2018-05-17T04:43:10.218Z,430
2018-05-17T04:44:17.424Z,429
2018-05-17T04:45:24.627Z,430
2018-05-17T04:46:31.832Z,430
2018-05-17T04:47:38.762Z,430
2018-05-17T04:48:45.968Z,430
2018-05-17T04:49:53.176Z,430
2018-05-17T04:51:00.395Z,429
2018-05-17T04:52:07.588Z,429
2018-05-17T04:53:14.519Z,429
2018-05-17T04:54:21.739Z,428
2018-05-17T04:55:28.945Z,429
2018-05-17T04:56:36.147Z,429
2018-05-17T04:57:43.078Z,429
2018-05-17T04:58:50.283Z,429
2018-05-17T04:59:57.221Z,430
2018-05-17T05:01:04.436Z,429
2018-05-17T05:02:11.371Z,429
2018-05-17T05:03:18.573Z,430
2018-05-17T05:04:25.769Z,430
2018-05-17T05:05:32.703Z,429
2018-05-17T05:06:39.906Z,429
2018-05-17T05:07:47.113Z,429
2018-05-17T05:08:54.316Z,429
2018-05-17T05:10:01.243Z,429
2018-05-17T05:11:08.451Z,430
2018-05-17T05:12:15.678Z,430
2018-05-17T05:13:22.766Z,430
2018-05-17T05:14:29.976Z,430
2018-05-17T05:15:37.174Z,430
2018-05-17T05:16:44.378Z,430
2018-05-17T05:17:51.580Z,430
2018-05-17T05:18:58.793Z,430
2018-05-17T05:20:06.004Z,430
2018-05-17T05:21:13.168Z,430
2018-05-17T05:22:20.361Z,430
2018-05-17T05:23:27.570Z,430
2018-05-17T05:24:34.776Z,430
2018-05-17T05:25:41.980Z,430
2018-05-17T05:26:49.184Z,430
2018-05-17T05:27:56.394Z,430
2018-05-17T05:29:03.592Z,430
2018-05-17T05:30:10.802Z,430
2018-05-17T05:31:18.010Z,430
2018-05-17T05:32:25.218Z,430
2018-05-17T05:33:32.429Z,430
2018-05-17T05:34:39.634Z,430
2018-05-17T05:35:46.843Z,430
2018-05-17T05:36:54.062Z,431
2018-05-17T05:38:01.264Z,431
2018-05-17T05:39:08.262Z,430
2018-05-17T05:40:15.467Z,430
2018-05-17T05:41:22.746Z,430
2018-05-17T05:42:29.678Z,430
2018-05-17T05:43:36.960Z,430
2018-05-17T05:44:44.165Z,429
2018-05-17T05:45:51.374Z,429
2018-05-17T05:46:58.583Z,428
2018-05-17T05:48:05.799Z,428
2018-05-17T05:49:13.251Z,428
2018-05-17T05:50:20.585Z,429
2018-05-17T05:51:27.789Z,428
2018-05-17T05:52:34.997Z,428
2018-05-17T05:53:42.201Z,428
2018-05-17T05:54:49.105Z,428
2018-05-17T05:55:56.315Z,428
2018-05-17T05:57:03.237Z,428
2018-05-17T05:58:10.439Z,428
2018-05-17T05:59:17.648Z,427
2018-05-17T06:00:24.856Z,428
2018-05-17T06:01:31.781Z,428
2018-05-17T06:02:38.986Z,427
2018-05-17T06:03:46.191Z,427
2018-05-17T06:04:53.397Z,427
2018-05-17T06:06:00.609Z,426
2018-05-17T06:07:07.812Z,426
2018-05-17T06:08:15.037Z,425
2018-05-17T06:09:22.286Z,425
2018-05-17T06:10:29.493Z,425
2018-05-17T06:11:36.699Z,425
2018-05-17T06:12:43.906Z,425
2018-05-17T06:13:51.118Z,427
2018-05-17T06:14:58.321Z,427
2018-05-17T22:00:07.010Z,463
2018-05-17T22:01:14.249Z,456
2018-05-17T22:02:21.459Z,453
2018-05-17T22:03:28.662Z,452
2018-05-17T22:04:35.865Z,451
2018-05-17T22:05:43.070Z,450
2018-05-17T22:06:49.972Z,450
2018-05-17T22:07:57.175Z,449
2018-05-17T22:09:04.377Z,448
2018-05-17T22:10:11.303Z,447
2018-05-17T22:11:18.508Z,448
2018-05-17T22:12:25.715Z,447
2018-05-17T22:13:32.916Z,448
2018-05-17T22:14:40.120Z,448
2018-05-17T22:15:47.323Z,448
2018-05-17T22:16:54.528Z,447
2018-05-17T22:18:01.459Z,448
2018-05-17T22:19:08.665Z,448
2018-05-17T22:20:15.875Z,448
2018-05-17T22:21:23.084Z,447
2018-05-17T22:22:30.293Z,447
2018-05-17T22:23:52.146Z,447
2018-05-17T22:24:59.348Z,446
2018-05-17T22:26:06.276Z,447
2018-05-17T22:27:13.490Z,448
2018-05-17T22:28:20.738Z,448
2018-05-17T22:29:27.940Z,447
2018-05-17T22:30:35.155Z,447
2018-05-17T22:31:42.361Z,447
2018-05-17T22:32:49.563Z,448
2018-05-17T22:33:56.768Z,447
2018-05-17T22:35:03.967Z,448
2018-05-17T22:36:11.398Z,449
2018-05-17T22:37:18.601Z,449
2018-05-17T22:38:25.802Z,448
2018-05-17T22:39:33.008Z,448
2018-05-17T22:40:39.638Z,448
2018-05-17T22:41:46.302Z,449
2018-05-17T22:42:53.514Z,450
2018-05-17T22:44:00.721Z,449
2018-05-17T22:45:07.924Z,450
2018-05-17T22:46:14.850Z,450
2018-05-17T22:47:22.058Z,450
2018-05-17T22:48:29.260Z,450
2018-05-17T22:49:36.460Z,450
2018-05-17T22:50:43.695Z,450
2018-05-17T22:51:51.018Z,450
2018-05-17T22:52:58.305Z,449
2018-05-17T22:54:05.510Z,450
2018-05-17T22:55:12.713Z,450
2018-05-17T22:56:19.935Z,450
2018-05-17T22:57:27.120Z,450
2018-05-17T22:58:34.328Z,449
2018-05-17T22:59:41.528Z,449
2018-05-17T23:00:48.466Z,450
2018-05-17T23:01:55.672Z,451
2018-05-17T23:03:02.874Z,450
2018-05-17T23:04:10.072Z,451
2018-05-17T23:05:17.281Z,451
2018-05-17T23:06:24.480Z,451
2018-05-17T23:07:31.414Z,451
2018-05-17T23:08:38.613Z,452
2018-05-17T23:09:45.822Z,452
2018-05-17T23:10:53.025Z,452
2018-05-17T23:12:00.232Z,452
2018-05-17T23:13:07.444Z,452
2018-05-17T23:14:14.653Z,452
2018-05-17T23:15:21.583Z,452
2018-05-17T23:16:28.792Z,452
2018-05-17T23:17:35.993Z,453
2018-05-17T23:18:43.197Z,452
2018-05-17T23:19:50.408Z,453
2018-05-17T23:20:57.607Z,453
2018-05-17T23:22:04.538Z,453
2018-05-17T23:23:11.738Z,454
2018-05-17T23:24:18.944Z,453
2018-05-17T23:25:26.147Z,454
2018-05-17T23:26:33.349Z,454
2018-05-17T23:27:40.550Z,453
2018-05-17T23:28:47.754Z,453
2018-05-17T23:29:54.952Z,452
2018-05-17T23:31:02.167Z,451
2018-05-17T23:32:09.370Z,450
2018-05-17T23:33:16.298Z,450
2018-05-17T23:34:23.500Z,450
2018-05-17T23:35:30.703Z,449
2018-05-17T23:36:37.912Z,449
2018-05-17T23:37:45.115Z,449
2018-05-17T23:38:52.317Z,450
2018-05-17T23:39:59.517Z,450
2018-05-17T23:41:06.721Z,451
2018-05-17T23:42:13.929Z,452
2018-05-17T23:43:21.124Z,452
2018-05-17T23:44:28.051Z,453
2018-05-17T23:45:35.254Z,454
2018-05-17T23:46:42.196Z,455
2018-05-17T23:47:49.396Z,457
2018-05-17T23:48:56.592Z,459
2018-05-17T23:50:03.795Z,462
2018-05-17T23:51:11.000Z,464
2018-05-17T23:52:18.201Z,466
2018-05-17T23:53:25.410Z,468
2018-05-17T23:54:32.613Z,470
2018-05-17T23:55:39.828Z,474
2018-05-17T23:56:47.030Z,476
2018-05-17T23:57:54.236Z,478
2018-05-17T23:59:01.166Z,480
